Time;durP1;ratioP1;P1;durP2;ratioP2;P2;SDS_P1;SDS_P2;PMS_P1;PMS_P2;Temp;Humidity;BMP_temperature;BMP_pressure;BME280_temperature;BME280_humidity;BME280_pressure;Samples;Min_cycle;Max_cycle;Signal;HPM_P1;HPM_P2
2021/11/16 00:01:11;;;;;;;6.80;3.50;;;;;;;-0.11;59.07;101553.58;24526;1357;3026231;-72
2021/11/16 00:03:40;;;;;;;8.00;3.50;;;;;;;-0.08;59.10;101550.69;24496;1355;3027086;-73
2021/11/16 00:06:09;;;;;;;6.80;3.00;;;;;;;-0.03;58.85;101546.83;24548;1351;3026407;-72
2021/11/16 00:08:38;;;;;;;5.90;2.90;;;;;;;-0.04;58.82;101545.42;24556;1356;3051487;-73
2021/11/16 00:11:07;;;;;;;9.80;4.70;;;;;;;-0.03;58.83;101551.64;24538;1355;3026010;-71
2021/11/16 00:13:36;;;;;;;6.00;3.30;;;;;;;-0.04;58.73;101541.81;24501;1351;3054482;-71
2021/11/16 00:16:05;;;;;;;7.00;3.20;;;;;;;0.01;58.55;101544.13;24562;1355;3028106;-70
2021/11/16 00:18:35;;;;;;;8.50;3.20;;;;;;;-0.01;58.48;101547.19;24551;1355;3048225;-73
2021/11/16 00:21:07;;;;;;;8.70;3.30;;;;;;;-0.02;58.47;101545.98;24507;1354;3027115;-71
2021/11/16 00:23:37;;;;;;;9.90;3.20;;;;;;;0.00;58.58;101548.25;24528;1351;3029597;-70
2021/11/16 00:26:08;;;;;;;6.80;3.20;;;;;;;-0.01;58.53;101549.79;24540;1351;3026645;-69
2021/11/16 00:28:37;;;;;;;5.90;2.90;;;;;;;0.02;58.53;101549.47;24515;1354;3026533;-72
2021/11/16 00:31:06;;;;;;;7.80;3.80;;;;;;;-0.07;58.59;101547.10;24540;1348;3027042;-72
2021/11/16 00:33:35;;;;;;;6.80;3.50;;;;;;;-0.08;58.61;101549.83;24536;1357;3058429;-71
2021/11/16 00:36:04;;;;;;;10.00;3.50;;;;;;;-0.07;58.70;101549.17;24532;1354;3026218;-70
2021/11/16 00:38:35;;;;;;;6.20;3.30;;;;;;;-0.05;58.47;101553.35;24547;1355;3051966;-69
2021/11/16 00:41:04;;;;;;;6.40;2.80;;;;;;;-0.05;58.39;101549.38;24523;1351;3027007;-69
2021/11/16 00:43:33;;;;;;;7.00;2.60;;;;;;;-0.04;58.50;101548.52;24517;1356;3026810;-71
2021/11/16 00:46:03;;;;;;;6.80;3.60;;;;;;;-0.06;58.31;101545.23;24568;1351;3051803;-66
2021/11/16 00:48:32;;;;;;;8.60;3.50;;;;;;;-0.20;58.61;101550.34;24530;1351;3026390;-72
2021/11/16 00:51:02;;;;;;;5.60;3.40;;;;;;;-0.25;58.69;101545.94;24507;1348;3027843;-70
2021/11/16 00:53:36;;;;;;;6.50;3.30;;;;;;;-0.29;58.97;101550.00;24513;1357;3052687;-71
2021/11/16 00:56:08;;;;;;;9.00;4.00;;;;;;;-0.35;59.26;101551.79;24540;1354;3026807;-74
2021/11/16 00:58:38;;;;;;;7.00;3.40;;;;;;;-0.37;59.21;101546.59;24537;1354;3026794;-73
2021/11/16 01:01:06;;;;;;;7.10;3.50;;;;;;;-0.34;59.08;101543.89;24544;1351;3026794;-68
2021/11/16 01:03:36;;;;;;;7.30;3.60;;;;;;;-0.34;58.91;101549.23;24518;1351;3058203;-68
2021/11/16 01:06:05;;;;;;;8.60;3.80;;;;;;;-0.37;59.10;101547.30;24482;1360;3026975;-72
2021/11/16 01:08:35;;;;;;;7.90;3.70;;;;;;;-0.45;59.45;101545.94;24532;1357;3053744;-71
2021/11/16 01:11:04;;;;;;;8.20;3.80;;;;;;;-0.45;59.50;101546.11;24526;1356;3026725;-73
2021/11/16 01:13:37;;;;;;;8.10;4.10;;;;;;;-0.43;59.38;101543.04;24530;1351;3054575;-71
2021/11/16 01:16:06;;;;;;;7.10;3.40;;;;;;;-0.45;59.30;101541.98;24520;1352;3027025;-70
2021/11/16 01:18:35;;;;;;;5.10;3.20;;;;;;;-0.48;59.35;101538.48;24524;1350;3028630;-69
2021/11/16 01:21:06;;;;;;;7.30;3.30;;;;;;;-0.49;59.76;101543.27;24568;1351;3051641;-71
2021/11/16 01:23:35;;;;;;;8.50;3.80;;;;;;;-0.52;59.94;101542.20;24548;1354;3028538;-73
2021/11/16 01:26:04;;;;;;;9.80;3.70;;;;;;;-0.53;60.01;101542.52;24513;1351;3027324;-74
2021/11/16 01:28:33;;;;;;;6.70;3.60;;;;;;;-0.57;60.12;101541.59;24533;1357;3054627;-71
2021/11/16 01:31:04;;;;;;;7.30;3.30;;;;;;;-0.60;60.38;101539.81;24528;1359;3026362;-70
2021/11/16 01:36:10;;;;;;;10.60;4.00;;;;;;;-0.56;60.32;101539.02;24510;1348;3053251;-70
2021/11/16 01:38:40;;;;;;;7.70;3.70;;;;;;;-0.61;60.62;101541.52;24535;1351;3026823;-67
2021/11/16 01:41:10;;;;;;;6.80;3.80;;;;;;;-0.65;60.96;101535.42;24548;1351;3028634;-70
2021/11/16 01:43:39;;;;;;;7.20;3.50;;;;;;;-0.63;60.88;101538.73;24352;1341;3246300;-69
2021/11/16 01:46:11;;;;;;;9.80;4.70;;;;;;;-0.62;60.93;101539.95;24494;1354;3026858;-70
2021/11/16 01:48:45;;;;;;;7.20;3.70;;;;;;;-0.72;61.19;101543.02;24556;1352;3026783;-69
2021/11/16 01:51:15;;;;;;;7.00;3.70;;;;;;;-0.71;61.24;101538.41;24541;1351;3051970;-67
2021/11/16 01:53:45;;;;;;;8.00;3.90;;;;;;;-0.72;61.52;101539.92;24516;1357;3026236;-69
2021/11/16 01:56:14;;;;;;;8.60;3.50;;;;;;;-0.73;61.37;101540.60;24505;1354;3028232;-66
2021/11/16 01:58:43;;;;;;;7.00;3.50;;;;;;;-0.69;61.49;101537.92;24526;1357;3027508;-65
2021/11/16 02:01:12;;;;;;;7.70;3.50;;;;;;;-0.72;61.75;101536.16;24586;1357;3055281;-73
2021/11/16 02:03:41;;;;;;;8.90;3.80;;;;;;;-0.70;61.68;101541.02;24502;1354;3026463;-74
2021/11/16 02:06:22;;;;;;;10.80;4.30;;;;;;;-0.73;61.95;101541.80;24520;1355;3026811;-71
2021/11/16 02:08:52;;;;;;;8.80;4.20;;;;;;;-0.76;62.19;101536.06;24571;1352;3058916;-74
2021/11/16 02:11:23;;;;;;;11.10;3.70;;;;;;;-0.82;62.28;101532.52;24525;1351;3026365;-66
2021/11/16 02:13:52;;;;;;;6.60;3.80;;;;;;;-0.85;62.31;101532.29;24509;1351;3028409;-69
2021/11/16 02:16:21;;;;;;;8.80;4.30;;;;;;;-0.87;62.21;101535.88;24563;1358;3027341;-68
2021/11/16 02:18:50;;;;;;;8.30;3.80;;;;;;;-0.86;62.17;101541.04;24539;1351;3049457;-71
2021/11/16 02:21:21;;;;;;;8.20;3.70;;;;;;;-0.92;62.43;101534.72;24515;1348;3026853;-71
2021/11/16 02:23:50;;;;;;;8.20;4.40;;;;;;;-0.94;62.47;101536.06;24536;1354;3057317;-69
2021/11/16 02:26:20;;;;;;;9.90;4.70;;;;;;;-0.96;62.52;101536.36;24499;1351;3026191;-68
2021/11/16 02:28:49;;;;;;;10.10;4.20;;;;;;;-0.93;62.25;101529.73;24480;1354;3026926;-73
2021/11/16 02:31:18;;;;;;;8.20;4.90;;;;;;;-0.94;62.18;101520.93;24501;1357;3055158;-69
2021/11/16 02:33:47;;;;;;;6.70;3.70;;;;;;;-1.03;62.32;101524.02;24462;1357;3029596;-70
2021/11/16 02:36:16;;;;;;;7.90;4.00;;;;;;;-0.99;61.95;101530.28;24500;1354;3050590;-67
2021/11/16 02:38:45;;;;;;;6.50;3.70;;;;;;;-1.07;62.35;101530.99;24536;1350;3026873;-73
2021/11/16 02:41:14;;;;;;;11.00;4.10;;;;;;;-1.06;62.25;101532.90;24521;1355;3029938;-70
2021/11/16 02:43:43;;;;;;;14.10;5.00;;;;;;;-1.15;62.44;101529.29;24478;1350;3027535;-73
2021/11/16 02:46:13;;;;;;;6.60;4.00;;;;;;;-1.18;62.33;101524.23;24511;1353;3056462;-68
2021/11/16 02:48:42;;;;;;;10.50;4.30;;;;;;;-1.12;62.07;101533.14;24455;1351;3026726;-69
2021/11/16 02:51:11;;;;;;;8.60;4.10;;;;;;;-1.14;62.16;101539.46;24483;1354;3053620;-73
2021/11/16 02:53:40;;;;;;;14.70;6.10;;;;;;;-1.21;62.38;101533.30;24409;1357;3027043;-71
2021/11/16 02:56:10;;;;;;;10.50;4.90;;;;;;;-1.23;62.17;101536.52;24466;1357;3054710;-70
2021/11/16 02:58:40;;;;;;;10.20;4.70;;;;;;;-1.28;62.27;101538.81;24507;1357;3028594;-68
2021/11/16 03:01:14;;;;;;;15.40;6.00;;;;;;;-1.33;62.28;101531.49;24453;1355;3027205;-67
2021/11/16 03:05:15;;;;;;;15.60;6.70;;;;;;;-1.20;62.03;101530.21;30813;1358;3026220;-69
2021/11/16 03:07:57;;;;;;;13.80;6.70;;;;;;;-0.87;61.39;101540.84;24414;1364;3056214;-66
2021/11/16 03:10:29;;;;;;;14.00;4.70;;;;;;;-0.61;60.28;101539.27;24440;1358;3026506;-70
2021/11/16 03:12:58;;;;;;;9.60;4.20;;;;;;;-0.82;60.87;101538.73;24513;1354;3026839;-67
2021/11/16 03:15:27;;;;;;;11.30;4.10;;;;;;;-0.95;61.11;101531.75;24515;1357;3026954;-70
2021/11/16 03:17:56;;;;;;;7.60;4.00;;;;;;;-1.02;61.36;101527.83;24363;1358;3053510;-69
2021/11/16 03:20:25;;;;;;;7.50;3.60;;;;;;;-1.06;61.61;101530.84;24490;1354;3026482;-71
2021/11/16 03:23:08;;;;;;;6.90;4.00;;;;;;;-1.17;61.88;101532.02;24471;1354;3054676;-69
2021/11/16 03:25:42;;;;;;;7.80;3.80;;;;;;;-1.26;62.25;101532.33;24440;1354;3051937;-68
2021/11/16 03:28:12;;;;;;;;;;;;;;;-1.26;62.34;101534.23;24489;1357;3056625;-72
2021/11/16 03:30:43;;;;;;;8.10;4.10;;;;;;;-1.33;62.52;101532.70;24525;1354;3030277;-69
2021/11/16 03:33:12;;;;;;;7.80;3.80;;;;;;;-1.34;62.89;101532.16;24542;1354;3028090;-71
2021/11/16 03:35:41;;;;;;;7.40;4.00;;;;;;;-1.41;63.13;101533.21;24503;1354;3026144;-69
2021/11/16 03:38:11;;;;;;;10.10;5.10;;;;;;;-1.43;63.56;101535.59;24537;1354;3027419;-73
2021/11/16 03:40:40;;;;;;;9.40;4.40;;;;;;;-1.39;63.37;101527.92;24537;1355;3026873;-72
2021/11/16 03:43:10;;;;;;;8.60;4.80;;;;;;;-1.43;63.20;101519.95;24550;1354;3026892;-72
2021/11/16 03:45:39;;;;;;;9.10;4.30;;;;;;;-1.48;63.69;101524.13;24544;1357;3068182;-71
2021/11/16 03:48:08;;;;;;;11.80;5.00;;;;;;;-1.48;63.88;101525.65;24516;1354;3026186;-65
2021/11/16 03:50:37;;;;;;;8.50;5.00;;;;;;;-1.48;63.87;101526.01;24497;1354;3026329;-72
2021/11/16 03:53:10;;;;;;;8.30;4.30;;;;;;;-1.45;63.70;101518.70;24537;1355;3068367;-71
2021/11/16 03:55:41;;;;;;;11.30;5.30;;;;;;;-1.48;63.68;101519.83;24565;1358;3026399;-67
2021/11/16 03:58:19;;;;;;;9.40;4.50;;;;;;;-1.53;63.94;101522.64;24528;1354;3054038;-73
2021/11/16 04:01:00;;;;;;;8.30;4.30;;;;;;;-1.54;63.98;101524.52;24544;1354;3053791;-71
2021/11/16 04:03:30;;;;;;;10.70;4.90;;;;;;;-1.58;64.14;101525.98;24519;1352;3056691;-71
2021/11/16 04:06:00;;;;;;;8.20;4.70;;;;;;;-1.52;63.90;101533.99;24528;1360;3026106;-74
2021/11/16 04:08:29;;;;;;;10.30;4.80;;;;;;;-1.54;63.73;101532.43;24529;1354;3026683;-71
2021/11/16 04:10:58;;;;;;;7.20;4.20;;;;;;;-1.51;63.61;101528.02;24540;1354;3028019;-71
2021/11/16 04:13:27;;;;;;;8.10;4.30;;;;;;;-1.49;62.89;101529.27;24503;1354;3026829;-69
2021/11/16 04:15:56;;;;;;;7.20;4.20;;;;;;;-1.61;62.82;101530.36;24514;1354;3055215;-70
2021/11/16 04:18:25;;;;;;;12.40;4.30;;;;;;;-1.57;62.76;101525.99;24529;1357;3027219;-66
2021/11/16 04:20:55;;;;;;;7.80;4.40;;;;;;;-1.55;62.62;101522.61;24528;1355;3051872;-68
2021/11/16 04:23:24;;;;;;;9.80;4.60;;;;;;;-1.61;62.43;101520.75;24541;1355;3027262;-70
2021/11/16 04:25:54;;;;;;;6.90;4.60;;;;;;;-1.56;62.40;101524.83;24508;1357;3026683;-70
2021/11/16 04:28:24;;;;;;;9.60;4.50;;;;;;;-1.62;62.22;101532.41;24485;1354;3026497;-71
2021/11/16 04:30:54;;;;;;;8.40;5.00;;;;;;;-1.71;62.56;101529.45;24538;1355;3028745;-70
2021/11/16 04:33:23;;;;;;;11.60;4.40;;;;;;;-1.67;62.35;101524.91;24522;1351;3049621;-69
2021/11/16 04:35:52;;;;;;;9.00;4.20;;;;;;;-1.65;62.23;101527.20;24502;1356;3026302;-70
2021/11/16 04:38:21;;;;;;;6.60;3.90;;;;;;;-1.67;62.24;101544.17;24512;1357;3026148;-75
2021/11/16 04:40:53;;;;;;;8.70;4.50;;;;;;;-1.66;61.85;101537.66;24513;1360;3052718;-67
2021/11/16 04:43:26;;;;;;;10.50;4.90;;;;;;;-1.65;61.97;101535.44;24492;1354;3026876;-71
2021/11/16 04:45:58;;;;;;;12.30;4.60;;;;;;;-1.63;61.78;101531.02;24501;1351;3026494;-71
2021/11/16 05:04:59;;;;;;;10.70;4.30;;;;;;;-1.56;60.97;101545.61;24493;1358;3071596;-69
2021/11/16 05:07:30;;;;;;;6.90;3.10;;;;;;;-1.60;60.74;101551.17;24509;1357;3026373;-71
2021/11/16 05:10:00;;;;;;;11.30;3.60;;;;;;;-1.58;60.76;101553.98;24552;1351;3027390;-73
2021/11/16 05:12:30;;;;;;;8.10;3.50;;;;;;;-1.54;60.60;101557.85;24526;1354;3027198;-68
2021/11/16 05:15:06;;;;;;;8.80;3.50;;;;;;;-1.48;60.28;101562.64;24513;1357;3028746;-70
2021/11/16 05:17:36;;;;;;;7.70;3.60;;;;;;;-1.42;60.11;101567.08;24477;1352;3050455;-69
2021/11/16 05:20:06;;;;;;;6.20;3.30;;;;;;;-1.40;59.76;101559.87;24545;1355;3026876;-68
2021/11/16 05:22:35;;;;;;;10.20;3.70;;;;;;;-1.45;59.89;101561.16;24538;1355;3058949;-72
2021/11/16 05:25:04;;;;;;;7.50;3.70;;;;;;;-1.43;59.88;101562.55;24508;1355;3027092;-67
2021/11/16 05:27:35;;;;;;;7.50;3.30;;;;;;;-1.41;60.01;101561.05;24534;1354;3052366;-73
2021/11/16 05:30:06;;;;;;;6.80;3.60;;;;;;;-1.32;59.62;101561.43;24482;1358;3026863;-67
2021/11/16 05:32:36;;;;;;;6.00;3.20;;;;;;;-1.26;59.30;101565.68;24560;1354;3050792;-73
2021/11/16 05:35:06;;;;;;;5.50;3.00;;;;;;;-1.26;59.29;101575.31;24517;1354;3027081;-72
2021/11/16 05:37:35;;;;;;;7.20;3.00;;;;;;;-1.24;59.10;101582.08;24562;1354;3026702;-69
2021/11/16 05:40:05;;;;;;;7.60;3.20;;;;;;;-1.13;58.73;101579.38;24514;1358;3027847;-70
2021/11/16 05:42:36;;;;;;;7.90;2.70;;;;;;;-1.09;58.68;101581.36;24543;1354;3050849;-70
2021/11/16 05:45:05;;;;;;;6.00;3.40;;;;;;;-1.10;58.54;101584.77;24548;1358;3026450;-70
2021/11/16 05:47:37;;;;;;;7.80;3.40;;;;;;;-1.09;58.55;101586.16;24532;1355;3054107;-67
2021/11/16 05:50:07;;;;;;;8.30;3.50;;;;;;;-1.11;58.40;101591.11;24530;1357;3026790;-69
2021/11/16 05:52:37;;;;;;;11.90;3.60;;;;;;;-1.02;58.02;101583.39;24507;1354;3028588;-68
2021/11/16 05:55:08;;;;;;;8.30;3.30;;;;;;;-0.88;57.76;101586.42;24530;1357;3026987;-73
2021/11/16 05:57:37;;;;;;;8.10;3.80;;;;;;;-0.82;57.37;101591.54;24471;1360;3026516;-66
2021/11/16 06:00:08;;;;;;;6.20;3.20;;;;;;;-0.71;57.51;101588.48;24506;1357;3029878;-70
2021/11/16 06:02:37;;;;;;;10.30;3.10;;;;;;;-0.71;57.33;101585.91;24523;1354;3028792;-71
2021/11/16 06:05:07;;;;;;;10.30;3.50;;;;;;;-0.62;57.47;101594.00;24505;1353;3026679;-71
2021/11/16 06:07:37;;;;;;;8.10;3.20;;;;;;;-0.60;57.03;101602.46;24534;1354;3053837;-72
2021/11/16 06:10:06;;;;;;;9.00;3.60;;;;;;;-0.54;57.11;101601.90;24512;1354;3026603;-69
2021/11/16 06:12:37;;;;;;;10.60;4.00;;;;;;;-0.44;56.86;101602.77;24496;1357;3053810;-67
2021/11/16 06:15:06;;;;;;;8.10;3.50;;;;;;;-0.38;56.61;101608.39;24529;1358;3026722;-73
2021/11/16 06:17:40;;;;;;;7.00;3.70;;;;;;;-0.31;56.58;101604.73;24527;1354;3027061;-73
2021/11/16 06:20:09;;;;;;;9.40;4.10;;;;;;;-0.23;56.57;101597.47;24557;1354;3026068;-70
2021/11/16 06:22:38;;;;;;;9.20;3.70;;;;;;;-0.14;56.45;101602.27;24510;1357;3026105;-67
2021/11/16 06:25:08;;;;;;;7.30;3.60;;;;;;;-0.07;56.33;101605.34;24564;1354;3026473;-71
2021/11/16 06:27:37;;;;;;;6.40;3.50;;;;;;;0.06;56.12;101600.04;24444;1358;3047111;-68
2021/11/16 06:30:06;;;;;;;9.10;3.30;;;;;;;0.16;55.86;101606.58;24522;1360;3029571;-69
2021/11/16 06:32:35;;;;;;;7.70;3.50;;;;;;;0.25;55.60;101609.84;24504;1358;3068484;-69
2021/11/16 06:35:05;;;;;;;7.20;3.90;;;;;;;0.31;55.71;101605.61;24517;1356;3028573;-70
2021/11/16 06:37:34;;;;;;;6.30;3.10;;;;;;;0.40;55.39;101605.23;24512;1358;3053368;-71
2021/11/16 06:40:04;;;;;;;9.30;3.90;;;;;;;0.57;55.56;101606.86;24519;1359;3026932;-66
2021/11/16 06:42:36;;;;;;;12.80;5.30;;;;;;;0.62;55.05;101602.28;24516;1355;3051824;-67
2021/11/16 06:45:05;;;;;;;13.30;5.90;;;;;;;0.72;55.12;101604.66;24558;1360;3026567;-67
2021/11/16 06:47:34;;;;;;;11.10;5.70;;;;;;;0.81;54.88;101601.85;24488;1358;3026264;-69
2021/11/16 06:50:04;;;;;;;11.60;5.40;;;;;;;0.86;53.98;101601.41;24493;1355;3052647;-71
2021/11/16 06:52:36;;;;;;;10.90;4.70;;;;;;;0.90;53.41;101607.15;24471;1360;3026700;-69
2021/11/16 06:55:07;;;;;;;9.10;4.70;;;;;;;0.93;53.31;101607.90;24499;1357;3026365;-72
2021/11/16 06:57:38;;;;;;;9.50;4.10;;;;;;;1.03;52.83;101604.56;24507;1358;3027860;-70
2021/11/16 07:00:07;;;;;;;8.80;4.90;;;;;;;1.11;52.76;101602.41;24508;1354;3026669;-72
2021/11/16 07:02:40;;;;;;;10.70;4.60;;;;;;;1.19;52.57;101603.90;24517;1357;3026580;-70
2021/11/16 07:05:10;;;;;;;12.30;4.80;;;;;;;1.19;52.27;101608.56;24546;1357;3027420;-74
2021/11/16 07:07:44;;;;;;;13.50;4.40;;;;;;;1.25;51.90;101598.63;24459;1360;3026170;-69
2021/11/16 07:10:17;;;;;;;15.90;4.80;;;;;;;1.30;51.82;101591.27;24568;1354;3028112;-73
2021/11/16 07:13:07;;;;;;;14.50;6.00;;;;;;;1.26;52.24;101586.71;24491;1358;3053513;-73
2021/11/16 07:15:36;;;;;;;9.90;4.00;;;;;;;1.31;52.23;101591.42;24520;1355;3071802;-72
2021/11/16 07:18:07;;;;;;;8.90;3.80;;;;;;;1.36;51.95;101594.60;24482;1359;3026986;-69
2021/11/16 07:20:36;;;;;;;11.90;4.10;;;;;;;1.47;52.05;101587.45;24537;1354;3053045;-68
2021/11/16 07:23:09;;;;;;;11.80;4.90;;;;;;;1.61;51.76;101589.52;24523;1357;3025947;-73
2021/11/16 07:25:39;;;;;;;9.70;4.00;;;;;;;1.64;51.61;101586.10;24534;1352;3052863;-73
2021/11/16 07:28:07;;;;;;;9.70;3.80;;;;;;;1.73;51.25;101579.09;24549;1354;3026897;-69
2021/11/16 07:30:36;;;;;;;9.50;3.40;;;;;;;1.69;51.20;101569.21;24553;1351;3049150;-74
2021/11/16 07:33:14;;;;;;;6.50;2.60;;;;;;;1.83;50.85;101573.14;24593;1355;3026363;-71
2021/11/16 07:35:44;;;;;;;8.70;3.80;;;;;;;1.91;50.44;101572.00;24538;1358;3060312;-71
2021/11/16 07:38:15;;;;;;;7.90;3.60;;;;;;;1.86;50.35;101571.63;24590;1351;3026888;-68
2021/11/16 07:40:46;;;;;;;7.50;3.50;;;;;;;1.89;50.09;101569.23;24546;1352;3029508;-66
2021/11/16 07:43:19;;;;;;;8.90;4.30;;;;;;;2.01;50.22;101576.40;24565;1353;3027201;-69
2021/11/16 07:45:51;;;;;;;7.50;4.40;;;;;;;2.05;49.67;101579.55;24549;1358;3026444;-74
2021/11/16 07:48:21;;;;;;;10.90;4.10;;;;;;;2.09;49.35;101573.88;24534;1357;3026391;-72
2021/11/16 07:50:54;;;;;;;17.20;4.70;;;;;;;2.08;49.06;101571.45;24546;1357;3029092;-76
2021/11/16 07:53:29;;;;;;;11.30;4.20;;;;;;;2.14;49.14;101573.91;24607;1354;3026290;-69
2021/11/16 07:56:06;;;;;;;7.70;3.00;;;;;;;2.17;49.08;101572.55;24468;1358;3054104;-71
2021/11/16 07:58:38;;;;;;;6.70;2.90;;;;;;;2.20;48.86;101575.35;24534;1359;3051750;-71
2021/11/16 08:01:25;;;;;;;7.40;3.30;;;;;;;2.21;48.62;101576.73;24558;1355;3028367;-72
2021/11/16 08:04:06;;;;;;;6.50;3.00;;;;;;;2.20;48.64;101581.58;24527;1356;3054592;-71
2021/11/16 08:06:39;;;;;;;8.10;2.70;;;;;;;2.26;48.65;101583.17;24481;1357;3068492;-72
2021/11/16 08:09:17;;;;;;;7.30;2.70;;;;;;;2.43;48.74;101584.33;24511;1353;3026741;-75
2021/11/16 08:11:58;;;;;;;7.80;2.60;;;;;;;2.46;48.09;101573.63;24562;1356;3052120;-68
2021/11/16 08:14:27;;;;;;;5.40;2.90;;;;;;;2.40;48.38;101575.66;24478;1359;3054711;-72
2021/11/16 08:17:00;;;;;;;9.60;3.70;;;;;;;2.44;47.97;101574.30;24499;1358;3028252;-75
2021/11/16 08:19:31;;;;;;;9.60;3.20;;;;;;;2.46;47.80;101572.77;24496;1360;3054842;-71
2021/11/16 08:22:19;;;;;;;8.40;3.00;;;;;;;2.53;47.38;101569.69;24458;1357;3026275;-71
2021/11/16 08:24:48;;;;;;;11.20;3.30;;;;;;;2.57;46.91;101566.61;24517;1355;3056471;-70
2021/11/16 08:27:23;;;;;;;6.50;2.30;;;;;;;2.62;46.48;101563.69;24489;1360;3027766;-76
2021/11/16 08:29:59;;;;;;;5.40;2.40;;;;;;;2.66;46.53;101561.11;24446;1362;3052594;-73
2021/11/16 08:32:34;;;;;;;5.10;2.30;;;;;;;2.76;46.49;101560.13;24497;1361;3049425;-77
2021/11/16 08:35:11;;;;;;;8.20;3.10;;;;;;;2.77;46.42;101557.52;24507;1358;3067943;-70
2021/11/16 08:37:41;;;;;;;8.90;3.50;;;;;;;2.88;46.04;101545.48;24505;1362;3051921;-68
2021/11/16 08:40:15;;;;;;;21.60;3.80;;;;;;;2.92;45.73;101543.75;24411;1354;3029903;-74
2021/11/16 08:42:53;;;;;;;4.10;2.00;;;;;;;2.96;45.64;101543.94;24507;1361;3053086;-71
2021/11/16 08:45:28;;;;;;;4.00;1.80;;;;;;;2.95;45.50;101542.91;24500;1355;3059296;-73
2021/11/16 08:48:08;;;;;;;11.10;2.30;;;;;;;2.97;45.33;101542.22;24470;1354;3049691;-74
2021/11/16 08:50:45;;;;;;;6.60;2.60;;;;;;;2.99;45.18;101535.13;24615;1358;3053413;-72
2021/11/16 08:53:20;;;;;;;7.10;2.20;;;;;;;3.04;45.15;101535.50;24445;1362;3054747;-75
2021/11/16 08:55:51;;;;;;;6.80;2.00;;;;;;;3.04;45.11;101529.27;24479;1361;3071433;-75
2021/11/16 08:58:24;;;;;;;5.20;2.20;;;;;;;3.08;45.23;101522.52;24439;1360;3026543;-70
2021/11/16 09:01:05;;;;;;;3.30;1.90;;;;;;;3.19;44.78;101515.45;24488;1361;3027000;-72
2021/11/16 09:03:36;;;;;;;8.40;2.50;;;;;;;3.20;44.94;101513.91;24524;1355;3054153;-72
2021/11/16 09:06:15;;;;;;;4.80;2.10;;;;;;;3.24;44.73;101508.20;24472;1361;3028868;-73
2021/11/16 09:08:44;;;;;;;4.00;2.00;;;;;;;3.35;44.52;101508.04;24509;1354;3050253;-72
2021/11/16 09:11:15;;;;;;;5.90;2.20;;;;;;;3.39;44.37;101505.80;24466;1360;3026473;-67
2021/11/16 09:13:45;;;;;;;6.00;2.40;;;;;;;3.31;44.27;101498.67;24507;1358;3027240;-70
2021/11/16 09:16:33;;;;;;;3.60;1.80;;;;;;;3.33;44.23;101498.86;24516;1361;3071575;-74
2021/11/16 09:19:03;;;;;;;6.70;1.90;;;;;;;3.45;44.18;101498.53;24502;1357;3026302;-71
2021/11/16 09:21:37;;;;;;;7.60;3.70;;;;;;;3.49;44.13;101490.90;24573;1357;3026098;-72
2021/11/16 09:24:11;;;;;;;6.10;1.70;;;;;;;3.59;43.62;101486.58;24523;1361;3051691;-69
2021/11/16 09:29:21;;;;;;;3.50;1.20;;;;;;;3.50;43.57;101485.54;24492;1353;3049280;-71
2021/11/16 09:32:17;;;;;;;8.80;1.40;;;;;;;3.54;43.64;101480.86;24467;1360;3026605;-67
2021/11/16 09:34:50;;;;;;;7.70;2.70;;;;;;;3.54;43.75;101480.52;24447;1361;3050567;-70
2021/11/16 09:37:22;;;;;;;5.80;2.50;;;;;;;3.64;43.81;101473.06;24510;1355;3026439;-71
2021/11/16 09:39:53;;;;;;;5.90;1.80;;;;;;;3.75;43.62;101471.84;24528;1357;3026802;-71
2021/11/16 09:42:28;;;;;;;6.90;1.70;;;;;;;3.94;43.48;101475.14;24544;1359;3026763;-73
2021/11/16 09:45:03;;;;;;;8.00;1.50;;;;;;;3.96;43.13;101470.97;24503;1358;3054904;-72
2021/11/16 09:47:34;;;;;;;8.00;1.70;;;;;;;4.06;43.08;101469.22;24491;1361;3054884;-64
2021/11/16 09:50:11;;;;;;;5.70;2.00;;;;;;;4.07;43.13;101466.27;24489;1359;3028236;-73
2021/11/16 09:53:06;;;;;;;4.50;1.60;;;;;;;4.00;43.09;101455.36;24544;1358;3051930;-72
2021/11/16 09:55:37;;;;;;;5.60;1.90;;;;;;;4.11;43.13;101464.36;24463;1361;3053292;-72
2021/11/16 09:58:08;;;;;;;6.70;2.10;;;;;;;4.25;43.05;101463.45;24429;1359;3026697;-71
2021/11/16 10:00:38;;;;;;;6.20;2.70;;;;;;;4.16;43.24;101450.64;24467;1359;3026274;-70
2021/11/16 10:03:36;;;;;;;7.40;2.30;;;;;;;4.31;43.17;101458.77;24467;1356;3027487;-71
2021/11/16 10:06:06;;;;;;;5.10;2.30;;;;;;;4.22;43.02;101454.77;24462;1362;3054372;-74
2021/11/16 10:08:35;;;;;;;7.20;2.60;;;;;;;4.35;42.79;101451.29;24500;1358;3027090;-69
2021/11/16 10:11:04;;;;;;;5.80;2.10;;;;;;;4.33;42.76;101453.01;24511;1353;3027336;-69
2021/11/16 10:13:33;;;;;;;4.10;1.70;;;;;;;4.33;42.44;101448.52;24523;1361;3053958;-72
2021/11/16 10:16:04;;;;;;;6.10;2.40;;;;;;;4.40;42.44;101434.44;24527;1358;3027377;-68
2021/11/16 10:18:37;;;;;;;6.90;2.00;;;;;;;4.53;42.37;101435.61;24465;1355;3052776;-70
2021/11/16 10:21:11;;;;;;;9.20;2.40;;;;;;;4.57;42.26;101438.87;24411;1361;3027067;-73
2021/11/16 10:23:41;;;;;;;4.40;2.20;;;;;;;4.64;41.76;101430.16;24527;1361;3056453;-70
2021/11/16 10:26:11;;;;;;;4.10;1.70;;;;;;;4.71;41.85;101425.27;24510;1359;3025921;-68
2021/11/16 10:28:41;;;;;;;3.80;1.90;;;;;;;4.77;41.60;101424.36;24502;1361;3026282;-70
2021/11/16 10:31:11;;;;;;;6.00;1.60;;;;;;;4.66;41.60;101423.04;24508;1359;3055303;-72
2021/11/16 10:33:42;;;;;;;6.30;2.10;;;;;;;4.78;41.62;101413.27;24494;1353;3027198;-73
2021/11/16 10:36:13;;;;;;;6.20;2.20;;;;;;;4.98;41.72;101407.40;24532;1360;3026486;-66
2021/11/16 10:38:46;;;;;;;3.50;2.00;;;;;;;5.00;41.23;101408.95;24533;1355;3026213;-76
2021/11/16 10:41:20;;;;;;;5.10;2.10;;;;;;;5.07;41.14;101408.22;24485;1355;3068915;-72
2021/11/16 10:43:56;;;;;;;5.20;2.30;;;;;;;4.96;40.86;101399.95;24543;1352;3048820;-73
2021/11/16 10:46:31;;;;;;;5.50;2.30;;;;;;;5.04;40.88;101394.51;24535;1348;3052530;-70
2021/11/16 10:49:05;;;;;;;3.80;2.00;;;;;;;5.08;40.88;101393.79;24528;1352;3050000;-74
2021/11/16 10:51:35;;;;;;;6.70;1.80;;;;;;;5.04;40.49;101391.05;24501;1354;3056375;-73
2021/11/16 10:54:04;;;;;;;9.10;2.40;;;;;;;5.13;40.41;101386.98;24552;1356;3026819;-72
2021/11/16 10:56:36;;;;;;;5.10;2.10;;;;;;;5.20;40.33;101383.45;24531;1353;3027398;-75
2021/11/16 10:59:06;;;;;;;3.90;1.90;;;;;;;5.26;40.39;101381.67;24527;1358;3026901;-71
2021/11/16 11:01:52;;;;;;;3.20;1.80;;;;;;;5.21;40.28;101375.80;24521;1358;3026836;-70
2021/11/16 11:04:25;;;;;;;3.30;1.50;;;;;;;5.22;40.13;101371.79;24541;1357;3049734;-69
2021/11/16 11:06:55;;;;;;;5.30;2.50;;;;;;;5.20;40.19;101368.85;24543;1355;3052556;-72
2021/11/16 11:09:24;;;;;;;7.60;2.40;;;;;;;5.21;40.16;101368.15;24536;1355;3026470;-73
2021/11/16 11:11:54;;;;;;;8.10;2.40;;;;;;;5.16;40.43;101366.11;24524;1355;3026513;-75
2021/11/16 11:14:36;;;;;;;3.60;1.80;;;;;;;5.15;40.45;101365.77;24471;1354;3026950;-71
2021/11/16 11:17:08;;;;;;;7.30;1.80;;;;;;;5.28;40.24;101355.08;24506;1359;3054227;-68
2021/11/16 11:19:40;;;;;;;3.50;1.60;;;;;;;5.32;40.18;101355.39;24334;1358;3323308;-67
2021/11/16 11:22:21;;;;;;;3.50;1.50;;;;;;;5.38;39.98;101357.58;24640;1357;3027136;-72
2021/11/16 11:27:53;;;;;;;7.80;2.30;;;;;;;5.35;39.91;101339.88;24512;1361;3055561;-71
2021/11/16 11:30:23;;;;;;;5.70;2.10;;;;;;;5.35;39.86;101345.10;24536;1355;3051417;-70
2021/11/16 11:32:53;;;;;;;4.40;2.40;;;;;;;5.50;39.90;101345.31;24659;1355;3026769;-67
2021/11/16 11:35:24;;;;;;;5.30;2.40;;;;;;;5.53;39.97;101334.16;24623;1351;3026856;-64
2021/11/16 11:37:58;;;;;;;5.20;2.30;;;;;;;5.43;39.76;101329.22;24605;1356;3026501;-72
2021/11/16 11:40:29;;;;;;;6.90;2.40;;;;;;;5.41;40.06;101341.39;24648;1358;3052402;-66
2021/11/16 11:43:02;;;;;;;5.70;2.70;;;;;;;5.36;40.33;101333.96;24539;1360;3026448;-68
2021/11/16 11:45:38;;;;;;;5.40;2.20;;;;;;;5.44;40.21;101313.39;24574;1355;3030923;-74
2021/11/16 11:48:09;;;;;;;4.50;1.90;;;;;;;5.56;40.01;101313.61;24538;1357;3052243;-68
2021/11/16 11:50:48;;;;;;;4.00;2.00;;;;;;;5.42;39.82;101315.15;24581;1354;3026416;-71
2021/11/16 11:53:22;;;;;;;8.70;2.20;;;;;;;5.30;40.21;101313.35;24573;1357;3056552;-75
2021/11/16 11:55:57;;;;;;;3.80;2.00;;;;;;;5.41;40.08;101310.29;24599;1353;3048507;-68
2021/11/16 11:58:28;;;;;;;8.10;2.40;;;;;;;5.39;39.94;101311.00;24541;1357;3053473;-69